LFLS 210400Z AUTO 36011KT CAVOK M00/M03 Q1026 TEMPO BKN009

ElémentsDécodage
LFLS Station météo située sur l'aérodrome de GRENOBLE Saint-Geoirs
210400Z émis le 21 du mois à 04h00 UTC
AUTO Bulletin édité par un automate
36011KT vent du 360°, 11 noeuds
CAVOK Ceiling And Visibility OK
- Visibilité de 10 Km ou plus
- Pas de nuage au-dessous de 1500m ou au-dessous de l'altitude minimale du secteur la plus élevée (si>1500m) et absence de CB
- pas de temps présent significatif
M00/M03 température 00°C, point de rosée -03°C
 soit une humidité relative de 80%
Q1026 la pression au niveau de la mer (QNH) est de 1026 hPa
TEMPO fluctuation temporaire prévue
BKN009 nuages morcelés (5/8 à 7/8) à 900 pieds